Time;durP1;ratioP1;P1;durP2;ratioP2;P2;SDS_P1;SDS_P2;PMS_P1;PMS_P2;Temp;Humidity;BMP_temperature;BMP_pressure;BME280_temperature;BME280_humidity;BME280_pressure;Samples;Min_cycle;Max_cycle;Signal;HPM_P1;HPM_P2
2022/04/19 00:00:38;;;;;;;14.43;11.73;;;;;;;6.30;78.20;101510.00;6186492;23;20001;-76
2022/04/19 00:03:05;;;;;;;15.40;12.60;;;;;;;6.19;77.67;101494.13;6186597;23;20005;-77
2022/04/19 00:05:32;;;;;;;14.70;12.18;;;;;;;6.22;78.29;101497.44;6186628;23;20009;-77
2022/04/19 00:07:59;;;;;;;15.60;12.90;;;;;;;6.20;78.12;101498.38;6183599;23;20009;-77
2022/04/19 00:10:28;;;;;;;13.77;11.43;;;;;;;6.15;78.25;101501.09;6186479;23;20016;-77
2022/04/19 00:12:57;;;;;;;14.95;11.95;;;;;;;5.94;78.19;101461.63;6185028;23;20036;-77
2022/04/19 00:15:24;;;;;;;14.57;11.65;;;;;;;5.90;78.24;101469.41;6186358;23;20028;-77
2022/04/19 00:17:50;;;;;;;14.98;12.20;;;;;;;5.97;78.60;101488.88;6186322;23;20035;-77
2022/04/19 00:20:15;;;;;;;16.00;12.65;;;;;;;5.87;79.26;101479.78;6186143;23;20002;-78
2022/04/19 00:22:41;;;;;;;14.32;11.63;;;;;;;5.93;78.98;101498.41;6185823;23;20506;-77
2022/04/19 00:25:07;;;;;;;14.23;11.77;;;;;;;5.73;79.08;101477.69;6186294;23;20091;-77
2022/04/19 00:27:34;;;;;;;14.52;11.38;;;;;;;5.86;79.26;101496.06;6186664;23;20025;-77
2022/04/19 00:30:00;;;;;;;14.15;12.00;;;;;;;5.80;79.84;101499.66;6186552;23;20008;-77
2022/04/19 00:32:26;;;;;;;16.10;12.63;;;;;;;5.74;79.97;101484.47;6184346;23;20028;-77
2022/04/19 00:34:51;;;;;;;16.48;13.18;;;;;;;5.65;80.25;101471.97;6186065;23;20092;-77
2022/04/19 00:37:18;;;;;;;15.27;12.63;;;;;;;5.61;80.01;101465.28;6185837;23;19997;-77
2022/04/19 00:39:44;;;;;;;15.77;12.52;;;;;;;5.73;80.30;101493.91;6186114;23;20005;-78
2022/04/19 00:42:10;;;;;;;14.93;12.95;;;;;;;5.65;80.67;101492.47;6186489;23;20048;-77
2022/04/19 00:44:39;;;;;;;15.77;13.27;;;;;;;5.52;81.07;101473.25;6186111;23;20442;-77
2022/04/19 00:47:07;;;;;;;16.05;13.55;;;;;;;5.60;81.30;101495.16;6185927;23;20005;-77
2022/04/19 00:49:33;;;;;;;19.27;14.35;;;;;;;5.59;81.33;101497.78;6186172;23;20008;-77
2022/04/19 00:51:59;;;;;;;16.63;13.32;;;;;;;5.52;81.67;101484.34;6185992;23;20072;-77
2022/04/19 00:54:25;;;;;;;16.98;13.77;;;;;;;5.47;82.33;101481.06;6186207;23;20041;-78
2022/04/19 00:56:50;;;;;;;17.33;13.68;;;;;;;5.49;81.77;101492.09;6186143;23;20001;-77
2022/04/19 00:59:16;;;;;;;16.38;13.18;;;;;;;5.48;82.38;101486.13;6186037;23;20424;-79
2022/04/19 01:01:41;;;;;;;16.45;13.45;;;;;;;5.47;82.03;101481.91;6185852;23;20001;-75
2022/04/19 01:04:07;;;;;;;15.10;12.63;;;;;;;5.42;82.37;101488.91;6185899;23;20005;-77
2022/04/19 01:06:32;;;;;;;14.95;12.68;;;;;;;5.37;82.69;101485.63;6185664;23;20083;-79
2022/04/19 01:08:57;;;;;;;15.57;12.32;;;;;;;5.19;82.88;101465.72;6185683;23;20084;-78
2022/04/19 01:14:07;;;;;;;17.20;13.50;;;;;;;5.34;83.17;101488.31;6185773;23;20072;-77
2022/04/19 01:16:33;;;;;;;17.60;13.27;;;;;;;5.31;83.62;101488.41;6186003;23;20008;-77
2022/04/19 01:18:59;;;;;;;15.70;13.02;;;;;;;5.22;83.29;101475.03;6185889;23;20327;-78
2022/04/19 01:21:48;;;;;;;19.77;13.77;;;;;;;5.18;82.86;101479.41;6185862;23;20004;-76
2022/04/19 01:24:18;;;;;;;19.27;14.05;;;;;;;5.21;83.40;101487.00;6185573;23;20005;-77
2022/04/19 01:26:45;;;;;;;17.63;14.55;;;;;;;5.01;83.54;101453.47;6186075;23;20313;-76
2022/04/19 01:29:12;;;;;;;16.15;13.90;;;;;;;4.97;83.39;101446.75;6185894;23;20051;-77
2022/04/19 01:31:40;;;;;;;19.25;14.25;;;;;;;4.98;83.75;101458.69;6186095;23;20015;-77
2022/04/19 01:34:06;;;;;;;18.70;14.05;;;;;;;5.03;83.67;101472.19;6185489;23;20016;-77
2022/04/19 01:36:38;;;;;;;17.55;13.95;;;;;;;4.96;83.85;101473.25;6185797;23;20463;-77
2022/04/19 01:39:06;;;;;;;17.60;13.95;;;;;;;4.82;84.39;101464.25;6185772;23;20009;-78
2022/04/19 01:41:35;;;;;;;18.45;14.73;;;;;;;4.84;84.20;101475.28;6186012;23;20011;-77
2022/04/19 01:44:06;;;;;;;17.13;13.77;;;;;;;4.70;84.69;101445.84;6185671;23;20063;-77
2022/04/19 01:46:32;;;;;;;19.33;14.27;;;;;;;4.55;84.54;101429.22;6184045;23;20339;-80
2022/04/19 01:48:58;;;;;;;17.15;14.85;;;;;;;4.79;84.67;101466.06;6185558;23;20001;-83
2022/04/19 01:51:24;;;;;;;18.23;14.43;;;;;;;4.72;84.96;101470.53;6185441;23;20005;-77
2022/04/19 01:53:50;;;;;;;17.85;14.40;;;;;;;4.59;85.06;101441.03;6185517;23;20005;-77
2022/04/19 01:56:16;;;;;;;18.25;14.68;;;;;;;4.57;85.15;101446.19;6185310;23;20423;-84
2022/04/19 01:58:41;;;;;;;20.13;15.18;;;;;;;4.56;85.21;101451.38;6185761;23;20032;-77
2022/04/19 02:01:07;;;;;;;19.95;16.05;;;;;;;4.46;85.15;101432.88;6185777;23;20012;-77
2022/04/19 02:03:34;;;;;;;18.95;15.45;;;;;;;4.68;85.35;101465.53;6185665;23;20411;-77
2022/04/19 02:06:00;;;;;;;17.17;15.35;;;;;;;4.50;85.64;101438.72;6185364;23;20012;-77
2022/04/19 02:08:25;;;;;;;19.58;16.45;;;;;;;4.68;85.08;101461.25;6185507;23;20009;-77
2022/04/19 02:10:50;;;;;;;18.30;14.73;;;;;;;4.63;85.08;101460.56;6185619;23;19997;-79
2022/04/19 02:13:16;;;;;;;20.23;16.17;;;;;;;4.64;84.86;101467.34;6185078;23;20001;-77
2022/04/19 02:15:43;;;;;;;18.92;15.82;;;;;;;4.50;84.82;101441.28;6185448;23;20300;-77
2022/04/19 02:18:10;;;;;;;19.85;15.55;;;;;;;4.61;84.39;101464.84;6185681;23;20001;-76
2022/04/19 02:20:35;;;;;;;21.23;16.02;;;;;;;4.60;84.82;101464.00;6185373;23;20012;-77
2022/04/19 02:23:01;;;;;;;21.80;16.23;;;;;;;4.62;84.45;101458.84;6185247;23;20063;-78
2022/04/19 02:25:28;;;;;;;21.30;16.13;;;;;;;4.60;84.55;101455.50;6185713;23;20004;-80
2022/04/19 02:27:54;;;;;;;21.48;15.93;;;;;;;4.61;84.67;101459.72;6185539;23;20033;-78
2022/04/19 02:30:19;;;;;;;19.55;15.80;;;;;;;4.43;85.35;101439.81;6185145;23;20005;-77
2022/04/19 02:32:46;;;;;;;19.35;14.77;;;;;;;4.56;85.64;101459.88;6185504;23;20036;-76
2022/04/19 02:35:18;;;;;;;20.55;15.25;;;;;;;4.46;85.86;101444.81;6185234;23;20419;-77
2022/04/19 02:38:01;;;;;;;17.60;13.73;;;;;;;4.39;85.38;101441.59;6185210;23;20035;-77
2022/04/19 02:40:27;;;;;;;17.88;14.18;;;;;;;4.44;85.63;101459.38;6185380;23;20008;-77
2022/04/19 02:42:57;;;;;;;18.40;14.23;;;;;;;4.39;86.00;101448.44;6185456;23;20005;-77
2022/04/19 02:45:24;;;;;;;16.70;13.85;;;;;;;4.38;85.95;101445.03;6185117;23;20005;-77
2022/04/19 02:48:08;;;;;;;16.17;13.25;;;;;;;4.35;86.01;101451.97;6185318;23;20012;-77
2022/04/19 02:50:40;;;;;;;22.30;14.18;;;;;;;4.33;86.02;101452.00;6186222;23;20005;-78
2022/04/19 02:53:05;;;;;;;;;;;;;;;4.36;84.49;101449.34;6187543;23;20028;-77
2022/04/19 02:55:30;;;;;;;17.45;13.60;;;;;;;4.31;85.70;101454.56;6187399;23;20234;-77
2022/04/19 02:57:56;;;;;;;18.55;14.82;;;;;;;4.25;86.42;101453.94;6187068;23;20439;-77
2022/04/19 03:00:22;;;;;;;18.52;14.57;;;;;;;4.23;86.59;101456.53;6187044;23;20047;-78
2022/04/19 03:02:47;;;;;;;18.27;15.05;;;;;;;4.12;86.10;101445.72;6186804;23;20012;-77
2022/04/19 03:05:13;;;;;;;18.60;15.15;;;;;;;3.93;86.71;101416.41;6187165;23;20009;-77
2022/04/19 03:07:38;;;;;;;20.33;15.45;;;;;;;3.92;87.05;101423.25;6186779;23;20004;-77
2022/04/19 03:10:06;;;;;;;18.27;15.25;;;;;;;3.98;86.84;101447.81;6187161;23;20364;-77
2022/04/19 03:12:31;;;;;;;21.48;15.45;;;;;;;3.92;87.20;101438.56;6187058;23;20427;-76
2022/04/19 03:14:56;;;;;;;18.52;15.65;;;;;;;3.97;87.11;101446.13;6186769;23;20005;-77
2022/04/19 03:17:21;;;;;;;21.02;16.08;;;;;;;3.94;87.06;101447.06;6186973;23;20018;-77
2022/04/19 03:19:47;;;;;;;19.17;15.98;;;;;;;3.92;87.25;101446.22;6187240;23;20367;-77
2022/04/19 03:22:12;;;;;;;18.48;15.48;;;;;;;3.92;87.72;101450.50;6186474;23;20011;-77
2022/04/19 03:30:06;;;;;;;22.02;16.08;;;;;;;3.64;87.70;101410.34;6187110;23;20016;-76
2022/04/19 03:32:32;;;;;;;21.70;16.45;;;;;;;3.80;87.69;101446.56;6186463;23;20374;-74
2022/04/19 03:34:58;;;;;;;21.67;16.38;;;;;;;3.66;87.53;101429.03;6186858;23;20012;-78
2022/04/19 03:37:23;;;;;;;19.60;16.42;;;;;;;3.75;87.61;101450.97;6186714;23;20032;-76
2022/04/19 03:39:48;;;;;;;20.15;16.02;;;;;;;3.61;87.28;101425.72;6186645;23;20079;-76
2022/04/19 03:42:13;;;;;;;21.67;16.95;;;;;;;3.69;87.77;101448.53;6186446;23;20012;-76
2022/04/19 03:44:39;;;;;;;22.52;17.25;;;;;;;3.67;87.46;101450.28;6187025;23;20005;-77
2022/04/19 03:47:07;;;;;;;22.63;16.92;;;;;;;3.65;87.76;101447.78;6187014;23;20400;-76
2022/04/19 03:49:33;;;;;;;23.05;17.48;;;;;;;3.36;87.57;101411.91;6186661;23;20009;-77
2022/04/19 03:51:58;;;;;;;21.92;17.40;;;;;;;3.59;88.03;101457.31;6186273;23;20009;-77
2022/04/19 03:54:23;;;;;;;19.67;16.38;;;;;;;3.58;87.88;101446.25;6186552;23;20014;-78
2022/04/19 03:56:49;;;;;;;21.00;16.05;;;;;;;3.57;87.63;101443.72;6186457;23;20005;-76
2022/04/19 03:59:14;;;;;;;23.58;16.95;;;;;;;3.51;87.88;101436.22;6186497;23;20055;-76
2022/04/19 04:01:40;;;;;;;20.45;16.63;;;;;;;3.53;87.81;101453.16;6186040;23;20326;-76
2022/04/19 04:04:07;;;;;;;21.33;16.52;;;;;;;3.15;87.59;101382.63;6186329;23;20040;-77
2022/04/19 04:06:35;;;;;;;21.60;16.33;;;;;;;3.48;87.87;101449.91;6186554;23;20024;-76
2022/04/19 04:09:01;;;;;;;22.02;16.17;;;;;;;3.32;87.99;101433.25;6186121;23;20025;-77
2022/04/19 04:11:27;;;;;;;20.98;16.70;;;;;;;3.30;88.14;101440.94;6186328;23;20415;-77
2022/04/19 04:13:52;;;;;;;20.52;16.05;;;;;;;3.09;88.52;101409.09;6183207;23;20033;-77
2022/04/19 04:16:17;;;;;;;22.42;17.25;;;;;;;3.31;88.24;101447.72;6186671;23;20301;-78
2022/04/19 04:18:43;;;;;;;21.70;16.38;;;;;;;3.36;88.73;101445.09;6186119;23;20040;-76
2022/04/19 04:21:08;;;;;;;21.15;16.70;;;;;;;3.26;88.65;101439.34;6186363;23;20008;-77
2022/04/19 04:23:33;;;;;;;20.17;16.52;;;;;;;3.09;88.73;101415.91;6186440;23;20016;-76
2022/04/19 04:25:59;;;;;;;21.48;16.70;;;;;;;2.62;88.61;101346.38;6186443;23;20001;-76
2022/04/19 04:28:25;;;;;;;23.38;18.02;;;;;;;3.16;88.83;101433.63;6186126;23;20036;-77
2022/04/19 04:30:50;;;;;;;20.30;16.48;;;;;;;3.27;88.73;101450.41;6186249;23;20005;-78
2022/04/19 04:33:16;;;;;;;20.98;16.85;;;;;;;3.20;88.91;101439.47;6185837;23;20131;-77
2022/04/19 04:35:41;;;;;;;19.83;16.75;;;;;;;3.28;89.14;101462.28;6186261;23;20001;-76
2022/04/19 04:38:07;;;;;;;19.40;16.77;;;;;;;3.29;88.75;101464.78;6186137;23;20008;-76
2022/04/19 04:40:34;;;;;;;21.90;17.30;;;;;;;3.16;89.00;101436.16;6186108;23;20032;-76
2022/04/19 04:43:00;;;;;;;24.73;17.80;;;;;;;3.33;88.63;101457.91;6186067;23;20001;-76
2022/04/19 04:45:27;;;;;;;21.35;17.15;;;;;;;3.28;88.78;101447.81;6186103;23;20013;-77
2022/04/19 04:50:37;;;;;;;21.10;16.80;;;;;;;3.31;88.67;101436.69;6186424;23;20019;-77
2022/04/19 04:53:03;;;;;;;23.23;17.02;;;;;;;2.36;88.82;101277.28;6185545;22;20100;-77
2022/04/19 04:55:28;;;;;;;23.45;17.27;;;;;;;3.54;88.76;101462.53;6186072;23;20009;-76
2022/04/19 04:57:57;;;;;;;25.23;17.42;;;;;;;3.51;88.57;101452.38;6185820;23;20029;-76
2022/04/19 05:00:24;;;;;;;23.38;17.80;;;;;;;3.66;88.42;101469.06;6185870;23;20047;-78
2022/04/19 05:02:49;;;;;;;23.02;18.02;;;;;;;3.74;88.27;101464.59;6185824;23;20000;-78
2022/04/19 05:05:14;;;;;;;21.15;17.40;;;;;;;3.78;88.17;101466.19;6185832;23;20063;-77
2022/04/19 05:07:39;;;;;;;24.20;17.02;;;;;;;3.86;88.13;101450.69;6185704;23;20005;-75
2022/04/19 05:10:06;;;;;;;22.50;17.13;;;;;;;4.06;87.08;101468.91;6185670;23;20326;-76
2022/04/19 05:12:31;;;;;;;22.00;17.02;;;;;;;4.01;87.37;101457.94;6185900;23;20012;-79
2022/04/19 05:14:57;;;;;;;23.58;17.00;;;;;;;4.17;87.16;101464.34;6185658;23;20339;-78
2022/04/19 05:17:23;;;;;;;21.17;16.50;;;;;;;4.26;87.00;101471.78;6185658;23;20005;-79
2022/04/19 05:19:49;;;;;;;20.20;16.38;;;;;;;4.28;87.19;101459.78;6186089;23;20005;-79
2022/04/19 05:22:14;;;;;;;22.65;17.13;;;;;;;4.46;86.59;101478.06;6185714;23;20009;-79
2022/04/19 05:24:39;;;;;;;21.52;17.05;;;;;;;4.38;85.73;101436.53;6185634;23;20008;-77
2022/04/19 05:27:04;;;;;;;24.33;16.83;;;;;;;4.63;85.07;101454.59;6183267;23;20055;-78
2022/04/19 05:29:30;;;;;;;22.25;15.90;;;;;;;4.88;83.65;101469.19;6185823;23;20449;-78
2022/04/19 05:31:55;;;;;;;23.40;16.52;;;;;;;5.03;81.85;101475.59;6185665;23;20005;-78
2022/04/19 05:34:20;;;;;;;21.90;15.55;;;;;;;5.19;80.69;101466.53;6185614;23;20012;-81
2022/04/19 05:36:46;;;;;;;19.00;14.77;;;;;;;5.33;80.01;101463.56;6185796;23;20008;-78
2022/04/19 05:39:11;;;;;;;21.25;14.85;;;;;;;5.37;79.13;101449.78;6185442;23;20001;-79
2022/04/19 05:41:39;;;;;;;21.80;15.40;;;;;;;5.67;79.09;101476.16;6185455;23;20012;-79
2022/04/19 05:44:05;;;;;;;21.50;14.70;;;;;;;5.86;77.08;101473.00;6185286;23;20016;-79
2022/04/19 05:46:30;;;;;;;20.85;14.77;;;;;;;6.10;77.19;101469.66;6185266;23;20339;-77
2022/04/19 05:48:56;;;;;;;19.25;13.77;;;;;;;6.86;74.32;101468.63;6184726;23;20001;-79
2022/04/19 05:51:21;;;;;;;20.70;13.73;;;;;;;8.13;72.38;101415.50;6184929;23;20108;-77
2022/04/19 05:53:46;;;;;;;19.58;13.65;;;;;;;10.09;65.97;101448.38;6185157;23;20021;-79
2022/04/19 05:56:12;;;;;;;18.80;13.15;;;;;;;11.53;59.25;101436.28;6185428;23;20454;-77
2022/04/19 05:58:37;;;;;;;19.45;12.55;;;;;;;12.56;55.50;101457.78;6185524;23;20020;-78
2022/04/19 06:01:03;;;;;;;16.60;12.38;;;;;;;13.53;52.47;101456.91;6184849;23;20028;-76
2022/04/19 06:06:14;;;;;;;17.08;11.90;;;;;;;15.66;45.73;101436.75;6184708;23;20031;-78
2022/04/19 06:08:39;;;;;;;14.25;11.10;;;;;;;16.58;43.78;101459.22;6185439;23;20335;-81
2022/04/19 06:11:05;;;;;;;16.67;10.80;;;;;;;17.52;41.07;101464.81;6185019;23;20009;-78
2022/04/19 06:13:30;;;;;;;15.50;11.50;;;;;;;17.85;39.64;101451.59;6185195;23;20052;-77
2022/04/19 06:16:05;;;;;;;16.55;11.75;;;;;;;18.49;43.54;101469.66;6186114;23;20043;-76
2022/04/19 06:18:34;;;;;;;15.23;11.98;;;;;;;19.14;38.65;101463.06;6185341;23;20005;-79
2022/04/19 06:20:59;;;;;;;16.83;11.88;;;;;;;19.60;35.54;101461.59;6185666;23;20005;-79
2022/04/19 06:23:25;;;;;;;14.35;11.23;;;;;;;19.60;36.81;101458.16;6185533;23;20437;-80
2022/04/19 06:25:51;;;;;;;15.43;11.32;;;;;;;19.60;34.99;101443.25;6186181;23;20009;-80
2022/04/19 06:28:17;;;;;;;16.40;12.10;;;;;;;20.14;35.15;101469.75;6187592;23;20482;-79
2022/04/19 06:30:43;;;;;;;15.55;12.00;;;;;;;20.16;34.48;101466.03;6187635;23;20354;-78
2022/04/19 06:33:08;;;;;;;15.50;11.82;;;;;;;20.28;33.42;101464.88;6187628;23;20085;-78
2022/04/19 06:35:33;;;;;;;16.60;12.40;;;;;;;20.01;34.68;101465.66;6187516;23;20016;-78
2022/04/19 06:37:59;;;;;;;17.10;12.30;;;;;;;20.11;32.98;101457.75;6187335;23;20001;-78
2022/04/19 06:40:24;;;;;;;17.17;11.82;;;;;;;19.86;33.92;101469.69;6187020;23;20483;-79
2022/04/19 06:42:49;;;;;;;16.95;12.07;;;;;;;19.39;34.55;101460.91;6187085;23;20064;-78
2022/04/19 06:45:18;;;;;;;18.17;13.13;;;;;;;18.70;35.61;101447.88;6187174;23;20012;-78
2022/04/19 06:47:44;;;;;;;17.30;12.27;;;;;;;18.65;35.77;101429.13;6185735;23;20423;-80
2022/04/19 06:50:10;;;;;;;14.48;11.70;;;;;;;18.74;35.65;101457.09;6185527;23;20132;-79
2022/04/19 06:52:35;;;;;;;18.08;12.15;;;;;;;18.81;36.05;101458.22;6186984;23;20043;-79
2022/04/19 06:55:01;;;;;;;17.15;12.07;;;;;;;19.16;35.52;101469.00;6185706;23;20017;-79
2022/04/19 06:57:26;;;;;;;17.58;12.18;;;;;;;19.17;34.60;101464.59;6186683;23;20327;-80
2022/04/19 06:59:51;;;;;;;17.40;11.30;;;;;;;19.22;33.94;101438.00;6187381;23;20012;-81
2022/04/19 07:02:17;;;;;;;15.50;12.15;;;;;;;18.71;34.71;101437.25;6187478;23;20036;-80
2022/04/19 07:04:43;;;;;;;15.82;12.05;;;;;;;18.92;35.76;101458.91;6185728;23;20031;-79
2022/04/19 07:07:09;;;;;;;18.27;12.18;;;;;;;19.08;34.86;101450.56;6185210;23;20043;-78
2022/04/19 07:09:34;;;;;;;17.05;12.13;;;;;;;18.92;35.30;101476.41;6186982;23;20036;-79
2022/04/19 07:11:59;;;;;;;14.82;11.30;;;;;;;18.03;35.84;101460.50;6185005;23;20009;-80
2022/04/19 07:14:25;;;;;;;15.82;11.63;;;;;;;17.00;37.19;101462.00;6186733;23;20066;-80
2022/04/19 07:16:52;;;;;;;20.08;11.93;;;;;;;16.22;39.15;101481.16;6186872;23;20080;-80
2022/04/19 07:19:17;;;;;;;22.13;12.73;;;;;;;15.47;41.64;101489.31;6187083;23;20023;-80
2022/04/19 07:27:33;;;;;;;16.25;12.65;;;;;;;14.10;43.98;101490.31;6186701;23;20099;-79
2022/04/19 07:29:58;;;;;;;16.88;11.70;;;;;;;13.80;44.25;101491.44;6187055;23;20008;-78
2022/04/19 07:32:25;;;;;;;17.77;12.20;;;;;;;13.43;45.65;101462.69;6187016;23;20427;-81
2022/04/19 07:34:51;;;;;;;16.63;12.38;;;;;;;13.60;46.86;101503.09;6187010;23;20012;-77
2022/04/19 07:37:16;;;;;;;16.25;12.43;;;;;;;13.55;47.65;101497.38;6186277;23;20005;-75
2022/04/19 07:39:42;;;;;;;18.42;12.50;;;;;;;13.59;47.42;101498.84;6186779;23;20033;-79
2022/04/19 07:42:08;;;;;;;16.90;12.00;;;;;;;13.25;46.52;101448.28;6186517;23;20005;-78
2022/04/19 07:44:33;;;;;;;17.10;11.93;;;;;;;13.52;46.71;101496.75;6186687;23;20076;-79
2022/04/19 07:46:59;;;;;;;17.30;12.07;;;;;;;13.49;46.31;101477.03;6186692;23;20028;-77
2022/04/19 07:49:24;;;;;;;16.90;11.05;;;;;;;13.66;47.12;101504.47;6186432;23;20005;-78
2022/04/19 07:51:49;;;;;;;24.23;11.88;;;;;;;13.65;46.78;101500.19;6186965;23;20009;-78
2022/04/19 07:54:18;;;;;;;17.35;11.35;;;;;;;13.54;46.19;101476.72;6186336;23;20013;-78
2022/04/19 07:56:44;;;;;;;16.48;11.27;;;;;;;13.71;46.45;101494.63;6186432;23;20036;-78
2022/04/19 07:59:09;;;;;;;17.10;10.82;;;;;;;13.77;46.31;101499.44;6186656;23;20047;-77
2022/04/19 08:01:34;;;;;;;16.70;10.23;;;;;;;13.83;45.84;101500.78;6186547;23;20089;-78
2022/04/19 08:04:00;;;;;;;14.25;10.23;;;;;;;13.90;46.07;101502.03;6186675;23;20005;-78
2022/04/19 08:06:27;;;;;;;17.13;10.10;;;;;;;13.98;47.36;101485.03;6186817;23;20305;-79
2022/04/19 08:08:53;;;;;;;12.90;8.63;;;;;;;14.06;44.86;101474.13;6186509;23;20328;-77
2022/04/19 08:11:18;;;;;;;11.60;7.75;;;;;;;14.15;43.64;101483.03;6186563;23;20001;-78
2022/04/19 08:13:43;;;;;;;12.98;7.95;;;;;;;14.23;42.45;101480.75;6186180;23;20401;-79
2022/04/19 08:16:09;;;;;;;11.52;6.97;;;;;;;14.38;42.14;101494.50;6186294;23;20083;-79
2022/04/19 08:18:34;;;;;;;11.48;7.57;;;;;;;14.40;42.12;101497.81;6186637;23;20072;-78
2022/04/19 08:20:59;;;;;;;15.35;7.85;;;;;;;14.44;43.02;101492.28;6184531;23;20009;-79
2022/04/19 08:23:25;;;;;;;12.88;7.65;;;;;;;14.13;42.75;101439.00;6186459;23;20008;-78
2022/04/19 08:25:50;;;;;;;12.52;7.68;;;;;;;14.61;42.55;101493.75;6186205;23;20481;-80
2022/04/19 08:28:15;;;;;;;11.93;7.00;;;;;;;14.72;42.08;101493.84;6186274;23;20015;-78
2022/04/19 08:30:48;;;;;;;12.35;6.80;;;;;;;14.59;41.34;101462.69;6185330;23;20311;-76
2022/04/19 08:33:13;;;;;;;11.25;6.68;;;;;;;14.70;41.44;101461.94;6184768;23;20035;-76
2022/04/19 08:35:39;;;;;;;10.70;6.75;;;;;;;14.84;41.20;101484.34;6185912;23;20005;-76
2022/04/19 08:38:04;;;;;;;11.60;6.88;;;;;;;14.88;41.61;101486.63;6186534;23;20016;-76
2022/04/19 08:40:30;;;;;;;10.85;6.43;;;;;;;14.65;40.10;101456.22;6185832;23;20001;-76
2022/04/19 08:42:56;;;;;;;13.82;7.00;;;;;;;14.80;41.92;101486.34;6186049;23;20075;-76
2022/04/19 08:45:23;;;;;;;11.75;6.65;;;;;;;14.82;41.68;101481.84;6185950;23;20011;-80
2022/04/19 08:47:49;;;;;;;12.27;6.72;;;;;;;14.90;42.01;101482.16;6186174;23;20076;-77
2022/04/19 08:50:17;;;;;;;14.70;6.18;;;;;;;14.94;41.33;101487.97;6185570;23;20036;-78
2022/04/19 08:52:43;;;;;;;15.13;5.97;;;;;;;14.98;40.31;101491.19;6185778;23;20416;-81
2022/04/19 08:57:53;;;;;;;10.15;5.80;;;;;;;14.92;41.70;101472.47;6185780;23;20040;-78
2022/04/19 09:00:23;;;;;;;10.13;6.00;;;;;;;14.95;40.55;101466.25;6185706;23;20001;-76
2022/04/19 09:02:59;;;;;;;10.68;6.43;;;;;;;15.09;40.31;101483.44;6185686;23;20012;-76
2022/04/19 09:05:29;;;;;;;11.05;6.28;;;;;;;15.09;41.07;101480.84;6186212;23;20009;-79
2022/04/19 09:07:57;;;;;;;11.10;5.95;;;;;;;15.07;40.36;101474.94;6184700;23;20009;-80
2022/04/19 09:10:28;;;;;;;9.25;6.13;;;;;;;15.16;40.23;101477.69;6186204;23;20499;-79
2022/04/19 09:13:01;;;;;;;10.68;6.13;;;;;;;15.23;40.51;101482.44;6186139;23;20005;-78
2022/04/19 09:15:45;;;;;;;10.10;6.22;;;;;;;15.27;40.67;101471.72;6185570;23;20009;-81
2022/04/19 09:18:21;;;;;;;10.10;5.85;;;;;;;15.38;41.39;101470.94;6185901;23;20434;-81
2022/04/19 09:20:52;;;;;;;11.48;6.57;;;;;;;15.32;40.47;101450.56;6186207;23;20327;-81
2022/04/19 09:23:18;;;;;;;10.98;6.13;;;;;;;15.36;39.68;101460.66;6186138;23;20001;-80
2022/04/19 09:25:44;;;;;;;11.05;5.97;;;;;;;15.17;39.91;101416.09;6185325;23;20080;-80
2022/04/19 09:28:28;;;;;;;10.55;5.97;;;;;;;15.36;40.59;101457.22;6185494;23;20036;-80
2022/04/19 09:30:58;;;;;;;12.77;6.60;;;;;;;15.21;40.26;101431.34;6159315;23;20009;-80
2022/04/19 09:33:26;;;;;;;12.05;6.05;;;;;;;15.50;41.12;101470.03;6186035;23;20084;-80
2022/04/19 09:36:03;;;;;;;11.75;6.35;;;;;;;15.46;41.06;101446.00;6185977;23;20008;-79
2022/04/19 09:38:33;;;;;;;11.13;6.20;;;;;;;15.57;39.64;101460.00;6185977;23;20007;-79
2022/04/19 09:40:58;;;;;;;9.30;5.65;;;;;;;15.39;39.18;101429.19;6159603;23;20009;-80
2022/04/19 09:43:24;;;;;;;11.30;5.60;;;;;;;15.49;39.66;101437.16;6185455;23;20454;-80
2022/04/19 09:46:03;;;;;;;8.65;5.07;;;;;;;15.60;39.84;101444.16;6185371;23;20037;-80
2022/04/19 09:48:37;;;;;;;9.25;4.97;;;;;;;15.68;38.72;101454.88;6185978;23;20005;-79
2022/04/19 09:51:10;;;;;;;8.40;4.55;;;;;;;15.64;37.90;101451.69;6185978;23;20103;-78
2022/04/19 09:53:40;;;;;;;9.98;4.95;;;;;;;15.69;37.41;101457.34;6185297;23;20044;-81
2022/04/19 09:56:16;;;;;;;9.05;4.53;;;;;;;15.55;38.58;101426.28;6185572;23;20016;-82
2022/04/19 09:58:53;;;;;;;11.98;5.63;;;;;;;15.72;38.77;101459.72;6185617;23;20431;-83
2022/04/19 10:09:54;;;;;;;8.90;4.57;;;;;;;15.39;37.89;101387.53;6186625;23;20438;-86
2022/04/19 10:12:31;;;;;;;9.48;4.35;;;;;;;15.20;39.48;101337.81;6159156;23;20084;-84
2022/04/19 10:14:57;;;;;;;9.75;5.07;;;;;;;15.90;37.45;101443.66;6195588;22;20013;-95
2022/04/19 10:17:22;;;;;;;11.38;5.45;;;;;;;15.18;38.41;101319.72;6209296;23;20451;-96
2022/04/19 10:19:49;;;;;;;8.40;5.07;;;;;;;16.00;37.57;101448.06;6201300;23;20001;-95
2022/04/19 10:22:22;;;;;;;9.18;4.50;;;;;;;16.04;37.80;101446.06;6178863;23;20013;-95
2022/04/19 10:24:51;;;;;;;11.50;4.20;;;;;;;16.08;36.87;101439.66;6194682;23;20001;-95
2022/04/19 10:27:17;;;;;;;10.48;4.82;;;;;;;15.99;37.32;101403.91;6187523;23;20001;-89
2022/04/19 10:29:44;;;;;;;10.60;5.53;;;;;;;16.28;38.87;101425.94;6193977;23;20008;-94
2022/04/19 10:32:10;;;;;;;9.18;5.28;;;;;;;16.35;36.48;101434.94;6193761;23;20008;-95
2022/04/19 10:34:37;;;;;;;9.63;4.55;;;;;;;16.49;38.69;101441.69;6192858;23;20012;-93
2022/04/19 10:37:13;;;;;;;10.00;4.80;;;;;;;16.63;38.77;101435.41;6186527;23;20052;-95
2022/04/19 10:40:06;;;;;;;9.45;5.00;;;;;;;16.61;37.67;101442.50;6187601;23;20005;-96
2022/04/19 10:42:40;;;;;;;10.55;5.10;;;;;;;16.36;38.41;101396.69;6191218;23;20096;-95
2022/04/19 10:45:19;;;;;;;12.65;5.35;;;;;;;16.72;38.37;101441.72;6196642;23;20001;-95
2022/04/19 10:47:54;;;;;;;10.25;5.38;;;;;;;16.79;37.71;101443.69;6200237;23;20021;-92
2022/04/19 10:50:26;;;;;;;9.90;5.47;;;;;;;16.54;37.48;101392.63;6204644;23;20028;-80
2022/04/19 10:52:59;;;;;;;10.02;5.32;;;;;;;16.74;37.10;101409.31;6197822;23;20072;-94
2022/04/19 10:55:27;;;;;;;9.30;5.78;;;;;;;16.59;37.55;101379.22;6186660;23;20016;-91
2022/04/19 10:58:17;;;;;;;10.15;5.53;;;;;;;16.88;39.20;101439.53;6192847;23;20001;-95
2022/04/19 11:01:00;;;;;;;8.52;4.60;;;;;;;16.59;35.77;101405.28;6190770;23;20012;-93
2022/04/19 11:03:28;;;;;;;10.35;5.30;;;;;;;16.76;36.59;101422.25;6193813;23;20307;-94
2022/04/19 11:05:58;;;;;;;8.70;4.88;;;;;;;16.86;37.41;101418.78;6193853;23;20032;-93
2022/04/19 11:08:29;;;;;;;8.90;4.90;;;;;;;16.88;37.50;101414.25;6192821;23;19997;-92
2022/04/19 11:11:02;;;;;;;8.75;5.28;;;;;;;16.87;37.72;101403.94;6194705;23;20028;-95
2022/04/19 11:14:19;;;;;;;13.00;5.82;;;;;;;16.56;37.54;101356.00;6201567;23;20000;-93
2022/04/19 11:16:53;;;;;;;12.63;6.30;;;;;;;16.72;37.31;101392.97;6075762;23;20102;-96
2022/04/19 11:19:22;;;;;;;12.77;5.90;;;;;;;16.66;39.54;101369.97;6118544;23;20014;-96
2022/04/19 11:21:53;;;;;;;12.40;6.07;;;;;;;16.90;38.89;101411.53;6116809;23;20013;-94
2022/04/19 11:24:56;;;;;;;10.45;5.80;;;;;;;16.94;37.09;101410.34;6118733;23;20007;-95
2022/04/19 11:27:22;;;;;;;10.10;4.97;;;;;;;16.88;36.76;101384.75;6103374;23;20070;-86
2022/04/19 11:29:49;;;;;;;10.63;5.55;;;;;;;17.07;37.55;101389.28;6104636;23;20010;-77
2022/04/19 11:32:22;;;;;;;9.43;5.28;;;;;;;17.21;37.35;101407.28;6095732;23;20017;-76
2022/04/19 11:35:01;;;;;;;11.25;5.30;;;;;;;16.91;36.96;101355.78;6095598;23;20015;-79
2022/04/19 11:37:29;;;;;;;10.85;5.45;;;;;;;17.07;37.24;101394.50;6095736;23;20081;-76
2022/04/19 11:48:09;;;;;;;10.57;5.85;;;;;;;17.07;36.94;101384.06;6095142;23;20069;-77
2022/04/19 11:50:35;;;;;;;12.82;6.50;;;;;;;17.03;35.48;101399.16;6096518;23;20006;-88
2022/04/19 11:53:01;;;;;;;11.20;5.40;;;;;;;16.81;36.79;101375.75;6124612;23;20012;-88
2022/04/19 11:55:27;;;;;;;9.60;4.97;;;;;;;16.99;36.77;101399.53;6157436;23;20005;-90
2022/04/19 11:58:04;;;;;;;10.50;5.40;;;;;;;16.85;38.71;101362.34;6156771;23;20011;-89